Time;durP1;ratioP1;P1;durP2;ratioP2;P2;SDS_P1;SDS_P2;PMS_P1;PMS_P2;Temp;Humidity;BMP_temperature;BMP_pressure;BME280_temperature;BME280_humidity;BME280_pressure;Samples;Min_cycle;Max_cycle;Signal;HPM_P1;HPM_P2
2021/10/03 00:00:44;;;;;;;;;;;;;;;;;;5133782;27;20305;-73
2021/10/03 00:03:10;;;;;;;;;;;;;;;;;;5133532;27;19930;-73
2021/10/03 00:05:36;;;;;;;;;;;;;;;;;;5134073;27;19923;-73
2021/10/03 00:08:05;;;;;;;;;;;;;;;;;;5133323;27;20436;-73
2021/10/03 00:10:31;;;;;;;;;;;;;;;;;;5133493;27;20293;-73
2021/10/03 00:13:03;;;;;;;;;;;;;;;;;;5133304;27;19931;-73
2021/10/03 00:15:29;;;;;;;;;;;;;;;;;;5132887;27;19980;-73
2021/10/03 00:17:55;;;;;;;;;;;;;;;;;;5133280;27;19923;-73
2021/10/03 00:20:21;;;;;;;;;;;;;;;;;;5133786;28;19945;-73
2021/10/03 00:22:48;;;;;;;;;;;;;;;;;;5133568;28;19929;-73
2021/10/03 00:25:14;;;;;;;;;;;;;;;;;;5133933;28;19927;-73
2021/10/03 00:27:40;;;;;;;;;;;;;;;;;;5133454;28;20499;-73
2021/10/03 00:30:07;;;;;;;;;;;;;;;;;;5133030;28;19929;-73
2021/10/03 00:32:33;;;;;;;;;;;;;;;;;;5133581;28;19930;-73
2021/10/03 00:34:59;;;;;;;;;;;;;;;;;;5133159;28;20385;-72
2021/10/03 00:37:26;;;;;;;;;;;;;;;;;;5133813;28;19928;-73
2021/10/03 00:39:52;;;;;;;;;;;;;;;;;;5133776;28;19923;-74
2021/10/03 00:42:18;;;;;;;;;;;;;;;;;;5146769;28;19923;-73
2021/10/03 00:44:44;;;;;;;;;;;;;;;;;;5154760;28;19938;-74
2021/10/03 00:47:11;;;;;;;;;;;;;;;;;;5150133;28;20353;-74
2021/10/03 00:49:37;;;;;;;;;;;;;;;;;;5133372;28;19930;-74
2021/10/03 00:52:03;;;;;;;;;;;;;;;;;;5132966;28;19929;-74
2021/10/03 00:54:30;;;;;;;;;;;;;;;;;;5133241;28;19928;-74
2021/10/03 00:56:56;;;;;;;;;;;;;;;;;;5133003;28;19931;-72
2021/10/03 00:59:22;;;;;;;;;;;;;;;;;;5133122;28;19930;-73
2021/10/03 01:01:49;;;;;;;;;;;;;;;;;;5133442;28;19924;-72
2021/10/03 01:04:15;;;;;;;;;;;;;;;;;;5133013;28;20282;-73
2021/10/03 01:06:41;;;;;;;;;;;;;;;;;;5133077;28;19923;-72
2021/10/03 01:09:08;;;;;;;;;;;;;;;;;;5132727;28;19927;-73
2021/10/03 01:11:34;;;;;;;;;;;;;;;;;;5133253;28;19930;-73
2021/10/03 01:14:00;;;;;;;;;;;;;;;;;;5132620;28;19923;-73
2021/10/03 01:16:27;;;;;;;;;;;;;;;;;;5132962;28;19924;-73
2021/10/03 01:18:55;;;;;;;;;;;;;;;;;;5133061;28;19930;-73
2021/10/03 01:21:21;;;;;;;;;;;;;;;;;;5132799;28;20014;-73
2021/10/03 01:23:48;;;;;;;;;;;;;;;;;;5133130;28;19930;-73
2021/10/03 01:26:14;;;;;;;;;;;;;;;;;;5134022;27;20286;-73
2021/10/03 01:28:40;;;;;;;;;;;;;;;;;;5136703;27;19934;-74
2021/10/03 01:31:09;;;;;;;;;;;;;;;;;;5136647;27;19923;-73
2021/10/03 01:33:35;;;;;;;;;;;;;;;;;;5136346;27;19927;-73
2021/10/03 01:36:05;;;;;;;;;;;;;;;;;;5136444;27;19923;-73
2021/10/03 01:38:32;;;;;;;;;;;;;;;;;;5136839;27;19923;-72
2021/10/03 01:40:58;;;;;;;;;;;;;;;;;;5136452;27;19923;-72
2021/10/03 01:43:24;;;;;;;;;;;;;;;;;;5136676;27;19927;-72
2021/10/03 01:45:51;;;;;;;;;;;;;;;;;;5135994;27;20293;-72
2021/10/03 01:48:17;;;;;;;;;;;;;;;;;;5136193;27;19923;-72
2021/10/03 01:50:43;;;;;;;;;;;;;;;;;;5136543;27;19935;-72
2021/10/03 01:53:09;;;;;;;;;;;;;;;;;;5135798;27;19935;-72
2021/10/03 01:55:36;;;;;;;;;;;;;;;;;;5136067;27;19933;-72
2021/10/03 01:58:02;;;;;;;;;;;;;;;;;;5136099;27;19930;-72
2021/10/03 02:00:28;;;;;;;;;;;;;;;;;;5136085;27;19931;-72
2021/10/03 02:02:55;;;;;;;;;;;;;;;;;;5136103;27;19923;-73
2021/10/03 02:05:21;;;;;;;;;;;;;;;;;;5136224;27;20286;-73
2021/10/03 02:07:47;;;;;;;;;;;;;;;;;;5135846;27;19923;-73
2021/10/03 02:10:14;;;;;;;;;;;;;;;;;;5135793;27;19931;-72
2021/10/03 02:12:40;;;;;;;;;;;;;;;;;;5136102;27;19946;-72
2021/10/03 02:15:06;;;;;;;;;;;;;;;;;;5135395;27;19934;-72
2021/10/03 02:17:32;;;;;;;;;;;;;;;;;;5136017;27;19930;-72
2021/10/03 02:19:59;;;;;;;;;;;;;;;;;;5135432;27;20286;-73
2021/10/03 02:22:25;;;;;;;;;;;;;;;;;;5135828;27;19930;-73
2021/10/03 02:24:56;;;;;;;;;;;;;;;;;;5135635;27;19946;-73
2021/10/03 02:27:22;;;;;;;;;;;;;;;;;;5135580;27;20382;-73
2021/10/03 02:29:48;;;;;;;;;;;;;;;;;;5135400;27;19923;-72
2021/10/03 02:32:15;;;;;;;;;;;;;;;;;;5135562;27;19930;-73
2021/10/03 02:34:41;;;;;;;;;;;;;;;;;;5135331;27;20293;-72
2021/10/03 02:37:07;;;;;;;;;;;;;;;;;;5134604;27;19924;-73
2021/10/03 02:39:33;;;;;;;;;;;;;;;;;;5135219;27;19924;-73
2021/10/03 02:42:00;;;;;;;;;;;;;;;;;;5134919;27;19923;-72
2021/10/03 02:44:26;;;;;;;;;;;;;;;;;;5135479;27;19934;-72
2021/10/03 02:46:52;;;;;;;;;;;;;;;;;;5134849;27;19924;-73
2021/10/03 02:49:20;;;;;;;;;;;;;;;;;;5135334;27;19923;-73
2021/10/03 02:51:46;;;;;;;;;;;;;;;;;;5134884;27;19928;-73
2021/10/03 02:54:13;;;;;;;;;;;;;;;;;;5134757;27;19923;-73
2021/10/03 02:56:39;;;;;;;;;;;;;;;;;;5134968;27;20297;-73
2021/10/03 02:59:05;;;;;;;;;;;;;;;;;;5134583;27;19923;-73
2021/10/03 03:01:32;;;;;;;;;;;;;;;;;;5135191;27;19931;-72
2021/10/03 03:03:58;;;;;;;;;;;;;;;;;;5134520;27;19923;-73
2021/10/03 03:06:24;;;;;;;;;;;;;;;;;;5135101;27;19970;-73
2021/10/03 03:08:50;;;;;;;;;;;;;;;;;;5134298;27;19930;-72
2021/10/03 03:11:17;;;;;;;;;;;;;;;;;;5134992;27;19950;-72
2021/10/03 03:13:43;;;;;;;;;;;;;;;;;;5134462;27;19931;-72
2021/10/03 03:16:10;;;;;;;;;;;;;;;;;;5134337;27;20388;-72
2021/10/03 03:18:36;;;;;;;;;;;;;;;;;;5134463;27;19931;-73
2021/10/03 03:21:02;;;;;;;;;;;;;;;;;;5134542;27;19930;-73
2021/10/03 03:23:28;;;;;;;;;;;;;;;;;;5134377;27;19923;-73
2021/10/03 03:25:55;;;;;;;;;;;;;;;;;;5134468;27;19923;-73
2021/10/03 03:28:21;;;;;;;;;;;;;;;;;;5134573;27;20284;-73
2021/10/03 03:30:47;;;;;;;;;;;;;;;;;;5134209;27;19929;-73
2021/10/03 03:33:15;;;;;;;;;;;;;;;;;;5133944;27;19931;-72
2021/10/03 03:35:41;;;;;;;;;;;;;;;;;;5134193;27;20369;-73
2021/10/03 03:38:09;;;;;;;;;;;;;;;;;;5133859;27;19931;-72
2021/10/03 03:40:35;;;;;;;;;;;;;;;;;;5134062;27;19931;-72
2021/10/03 03:43:01;;;;;;;;;;;;;;;;;;5134099;27;19923;-73
2021/10/03 03:45:27;;;;;;;;;;;;;;;;;;5134253;27;19930;-73
2021/10/03 03:47:56;;;;;;;;;;;;;;;;;;5133738;27;19924;-73
2021/10/03 03:50:22;;;;;;;;;;;;;;;;;;5133005;27;19972;-73
2021/10/03 03:52:48;;;;;;;;;;;;;;;;;;5134103;27;19931;-73
2021/10/03 03:55:15;;;;;;;;;;;;;;;;;;5133695;27;19923;-73
2021/10/03 03:57:41;;;;;;;;;;;;;;;;;;5134139;27;19923;-73
2021/10/03 04:00:07;;;;;;;;;;;;;;;;;;5133484;27;20301;-73
2021/10/03 04:02:33;;;;;;;;;;;;;;;;;;5133792;27;19990;-73
2021/10/03 04:05:00;;;;;;;;;;;;;;;;;;5133822;27;19930;-73
2021/10/03 04:07:26;;;;;;;;;;;;;;;;;;5133578;27;20400;-73
2021/10/03 04:09:52;;;;;;;;;;;;;;;;;;5133734;27;19930;-73
2021/10/03 04:12:19;;;;;;;;;;;;;;;;;;5133946;27;19931;-73
2021/10/03 04:14:45;;;;;;;;;;;;;;;;;;5133452;27;20366;-73
2021/10/03 04:17:11;;;;;;;;;;;;;;;;;;5133621;27;19930;-72
2021/10/03 04:19:37;;;;;;;;;;;;;;;;;;5133769;27;19949;-72
2021/10/03 04:22:04;;;;;;;;;;;;;;;;;;5133266;27;19930;-73
2021/10/03 04:24:30;;;;;;;;;;;;;;;;;;5133748;27;19938;-73
2021/10/03 04:26:56;;;;;;;;;;;;;;;;;;5133535;27;20267;-73
2021/10/03 04:29:23;;;;;;;;;;;;;;;;;;5133420;28;19924;-73
2021/10/03 04:31:49;;;;;;;;;;;;;;;;;;5133604;28;19924;-72
2021/10/03 04:34:15;;;;;;;;;;;;;;;;;;5133356;28;20001;-73
2021/10/03 04:36:42;;;;;;;;;;;;;;;;;;5133533;28;19930;-73
2021/10/03 04:39:08;;;;;;;;;;;;;;;;;;5133181;28;20305;-72
2021/10/03 04:41:34;;;;;;;;;;;;;;;;;;5133434;28;19923;-73
2021/10/03 04:44:00;;;;;;;;;;;;;;;;;;5133621;28;19923;-73
2021/10/03 04:46:27;;;;;;;;;;;;;;;;;;5133617;28;19930;-73
2021/10/03 04:48:53;;;;;;;;;;;;;;;;;;5133849;28;19930;-73
2021/10/03 04:51:19;;;;;;;;;;;;;;;;;;5143817;28;19920;-73
2021/10/03 04:53:46;;;;;;;;;;;;;;;;;;5157831;28;19923;-74
2021/10/03 04:56:12;;;;;;;;;;;;;;;;;;5156764;28;19929;-73
2021/10/03 04:58:38;;;;;;;;;;;;;;;;;;5133349;28;19937;-73
2021/10/03 05:01:04;;;;;;;;;;;;;;;;;;5134415;27;19924;-73
2021/10/03 05:03:35;;;;;;;;;;;;;;;;;;5137126;27;20397;-73
2021/10/03 05:06:01;;;;;;;;;;;;;;;;;;5137021;27;19923;-73
2021/10/03 05:08:27;;;;;;;;;;;;;;;;;;5137258;27;19923;-73
2021/10/03 05:10:53;;;;;;;;;;;;;;;;;;5136819;27;19924;-73
2021/10/03 05:13:20;;;;;;;;;;;;;;;;;;5137254;27;19934;-73
2021/10/03 05:15:46;;;;;;;;;;;;;;;;;;5137259;27;20369;-73
2021/10/03 05:18:12;;;;;;;;;;;;;;;;;;5136611;27;19931;-73
2021/10/03 05:20:39;;;;;;;;;;;;;;;;;;5137021;27;19927;-73
2021/10/03 05:23:05;;;;;;;;;;;;;;;;;;5136612;27;20361;-73
2021/10/03 05:25:32;;;;;;;;;;;;;;;;;;5137054;27;19923;-73
2021/10/03 05:27:58;;;;;;;;;;;;;;;;;;5136711;27;19927;-73
2021/10/03 05:30:24;;;;;;;;;;;;;;;;;;5136571;27;20276;-73
2021/10/03 05:32:52;;;;;;;;;;;;;;;;;;5136363;27;19928;-73
2021/10/03 05:35:19;;;;;;;;;;;;;;;;;;5136811;27;19927;-73
2021/10/03 05:37:45;;;;;;;;;;;;;;;;;;5136833;27;19945;-73
2021/10/03 05:40:11;;;;;;;;;;;;;;;;;;5136463;27;19923;-73
2021/10/03 05:42:38;;;;;;;;;;;;;;;;;;5136328;27;20297;-73
2021/10/03 05:45:04;;;;;;;;;;;;;;;;;;5136140;27;19923;-73
2021/10/03 05:47:30;;;;;;;;;;;;;;;;;;5136701;27;19923;-73
2021/10/03 05:49:57;;;;;;;;;;;;;;;;;;5136227;27;20411;-73
2021/10/03 05:52:23;;;;;;;;;;;;;;;;;;5136102;27;19924;-73
2021/10/03 05:54:49;;;;;;;;;;;;;;;;;;5136106;27;19928;-73
2021/10/03 05:57:16;;;;;;;;;;;;;;;;;;5136101;27;20398;-73
2021/10/03 05:59:42;;;;;;;;;;;;;;;;;;5136316;27;19923;-73
2021/10/03 06:02:08;;;;;;;;;;;;;;;;;;5136120;27;19924;-73
2021/10/03 06:04:35;;;;;;;;;;;;;;;;;;5135987;27;19924;-73
2021/10/03 06:07:01;;;;;;;;;;;;;;;;;;5136004;27;19923;-73
2021/10/03 06:09:27;;;;;;;;;;;;;;;;;;5135894;27;20362;-73
2021/10/03 06:11:53;;;;;;;;;;;;;;;;;;5135378;27;20008;-73
2021/10/03 06:14:20;;;;;;;;;;;;;;;;;;5135253;27;20289;-73
2021/10/03 06:16:48;;;;;;;;;;;;;;;;;;5135814;27;19923;-73
2021/10/03 06:19:14;;;;;;;;;;;;;;;;;;5135397;27;19931;-73
2021/10/03 06:21:40;;;;;;;;;;;;;;;;;;5136021;27;19924;-73
2021/10/03 06:24:07;;;;;;;;;;;;;;;;;;5135492;27;19924;-73
2021/10/03 06:26:33;;;;;;;;;;;;;;;;;;5135935;27;19923;-73
2021/10/03 06:28:59;;;;;;;;;;;;;;;;;;5135562;27;19927;-73
2021/10/03 06:31:26;;;;;;;;;;;;;;;;;;5135501;27;19923;-73
2021/10/03 06:33:52;;;;;;;;;;;;;;;;;;5135394;27;19931;-73
2021/10/03 06:36:18;;;;;;;;;;;;;;;;;;5135344;27;20373;-73
2021/10/03 06:38:45;;;;;;;;;;;;;;;;;;5135710;27;19931;-73
2021/10/03 06:41:11;;;;;;;;;;;;;;;;;;5135381;27;19947;-73
2021/10/03 06:43:38;;;;;;;;;;;;;;;;;;5135308;27;19924;-73
2021/10/03 06:46:04;;;;;;;;;;;;;;;;;;5135284;27;19946;-73
2021/10/03 06:48:31;;;;;;;;;;;;;;;;;;5135138;27;19929;-73
2021/10/03 06:50:57;;;;;;;;;;;;;;;;;;5135052;27;19923;-73
2021/10/03 06:53:23;;;;;;;;;;;;;;;;;;5135033;27;20263;-73
2021/10/03 06:55:50;;;;;;;;;;;;;;;;;;5134472;27;19928;-73
2021/10/03 06:58:16;;;;;;;;;;;;;;;;;;5135168;27;19923;-73
2021/10/03 07:00:42;;;;;;;;;;;;;;;;;;5134913;27;20381;-73
2021/10/03 07:03:08;;;;;;;;;;;;;;;;;;5134929;27;19923;-73
2021/10/03 07:05:35;;;;;;;;;;;;;;;;;;5134761;27;20401;-73
2021/10/03 07:08:01;;;;;;;;;;;;;;;;;;5134406;27;19930;-73
2021/10/03 07:10:27;;;;;;;;;;;;;;;;;;5134674;27;19969;-73
2021/10/03 07:12:54;;;;;;;;;;;;;;;;;;5134686;27;19923;-73
2021/10/03 07:15:20;;;;;;;;;;;;;;;;;;5134885;27;20030;-73
2021/10/03 07:17:46;;;;;;;;;;;;;;;;;;5134570;27;19924;-73
2021/10/03 07:20:13;;;;;;;;;;;;;;;;;;5134510;27;19923;-73
2021/10/03 07:22:39;;;;;;;;;;;;;;;;;;5134954;27;19924;-73
2021/10/03 07:25:05;;;;;;;;;;;;;;;;;;5134211;27;19924;-73
2021/10/03 07:27:32;;;;;;;;;;;;;;;;;;5134774;27;19930;-73
2021/10/03 07:29:58;;;;;;;;;;;;;;;;;;5134330;27;19931;-73
2021/10/03 07:32:24;;;;;;;;;;;;;;;;;;5134608;27;19923;-74
2021/10/03 07:34:51;;;;;;;;;;;;;;;;;;5134149;27;20412;-73
2021/10/03 07:37:17;;;;;;;;;;;;;;;;;;5134240;27;19929;-73
2021/10/03 07:39:43;;;;;;;;;;;;;;;;;;5134393;27;19931;-73
2021/10/03 07:42:09;;;;;;;;;;;;;;;;;;5133918;27;20460;-73
2021/10/03 07:44:36;;;;;;;;;;;;;;;;;;5134164;27;19931;-73
2021/10/03 07:47:02;;;;;;;;;;;;;;;;;;5133726;27;19923;-73
2021/10/03 07:49:28;;;;;;;;;;;;;;;;;;5134319;27;19923;-73
2021/10/03 07:51:55;;;;;;;;;;;;;;;;;;5133681;27;20502;-74
2021/10/03 07:54:21;;;;;;;;;;;;;;;;;;5133925;27;19923;-74
2021/10/03 07:56:47;;;;;;;;;;;;;;;;;;5133864;27;20270;-74
2021/10/03 07:59:14;;;;;;;;;;;;;;;;;;5133453;27;19923;-73
2021/10/03 08:01:40;;;;;;;;;;;;;;;;;;5134228;27;19923;-74
2021/10/03 08:04:06;;;;;;;;;;;;;;;;;;5133479;27;20382;-74
2021/10/03 08:06:32;;;;;;;;;;;;;;;;;;5133887;27;19930;-74
2021/10/03 08:08:59;;;;;;;;;;;;;;;;;;5133807;27;19931;-74
2021/10/03 08:11:25;;;;;;;;;;;;;;;;;;5133742;27;20392;-74
2021/10/03 08:13:51;;;;;;;;;;;;;;;;;;5133674;27;19927;-74
2021/10/03 08:16:18;;;;;;;;;;;;;;;;;;5133947;27;19923;-74
2021/10/03 08:18:44;;;;;;;;;;;;;;;;;;5133512;27;19934;-74
2021/10/03 08:21:11;;;;;;;;;;;;;;;;;;5133519;27;19927;-73
2021/10/03 08:23:37;;;;;;;;;;;;;;;;;;5133905;28;19948;-73
2021/10/03 08:26:03;;;;;;;;;;;;;;;;;;5133280;27;19924;-73
2021/10/03 08:28:30;;;;;;;;;;;;;;;;;;5133772;27;19923;-74
2021/10/03 08:30:56;;;;;;;;;;;;;;;;;;5133138;28;20378;-74
2021/10/03 08:33:22;;;;;;;;;;;;;;;;;;5134009;28;19931;-74
2021/10/03 08:35:49;;;;;;;;;;;;;;;;;;5134428;27;19946;-73
2021/10/03 08:38:15;;;;;;;;;;;;;;;;;;5137723;27;19924;-74
2021/10/03 08:40:41;;;;;;;;;;;;;;;;;;5137973;27;19931;-74
2021/10/03 08:43:08;;;;;;;;;;;;;;;;;;5137697;27;20021;-73
2021/10/03 08:45:35;;;;;;;;;;;;;;;;;;5137555;27;19931;-73
2021/10/03 08:48:01;;;;;;;;;;;;;;;;;;5137509;27;19943;-74
2021/10/03 08:50:27;;;;;;;;;;;;;;;;;;5137467;27;20274;-74
2021/10/03 08:52:54;;;;;;;;;;;;;;;;;;5137189;27;19931;-74
2021/10/03 08:55:20;;;;;;;;;;;;;;;;;;5137438;27;20012;-75
2021/10/03 08:57:46;;;;;;;;;;;;;;;;;;5142504;27;20385;-74
2021/10/03 09:00:12;;;;;;;;;;;;;;;;;;5138806;27;19923;-75
2021/10/03 09:02:39;;;;;;;;;;;;;;;;;;5147897;27;19923;-74
2021/10/03 09:05:05;;;;;;;;;;;;;;;;;;5150398;27;19930;-76
2021/10/03 09:07:31;;;;;;;;;;;;;;;;;;5143900;27;19924;-76
2021/10/03 09:09:58;;;;;;;;;;;;;;;;;;5137257;27;19923;-82
2021/10/03 09:12:24;;;;;;;;;;;;;;;;;;5137034;27;20389;-74
2021/10/03 09:14:50;;;;;;;;;;;;;;;;;;5136720;27;20378;-74
2021/10/03 09:17:18;;;;;;;;;;;;;;;;;;5137089;27;19923;-76
2021/10/03 09:19:44;;;;;;;;;;;;;;;;;;5137131;27;20150;-73
2021/10/03 09:22:10;;;;;;;;;;;;;;;;;;5136656;27;20267;-75
2021/10/03 09:24:36;;;;;;;;;;;;;;;;;;5136786;27;19930;-72
2021/10/03 09:27:03;;;;;;;;;;;;;;;;;;5136408;27;19931;-76
2021/10/03 09:29:32;;;;;;;;;;;;;;;;;;5136978;27;19966;-76
2021/10/03 09:31:58;;;;;;;;;;;;;;;;;;5136446;27;20382;-76
2021/10/03 09:34:24;;;;;;;;;;;;;;;;;;5136529;27;19923;-74
2021/10/03 09:36:51;;;;;;;;;;;;;;;;;;5136724;27;19930;-76
2021/10/03 09:39:17;;;;;;;;;;;;;;;;;;5136490;27;20426;-73
2021/10/03 09:41:45;;;;;;;;;;;;;;;;;;5136543;27;19930;-75
2021/10/03 09:44:11;;;;;;;;;;;;;;;;;;5136521;27;19923;-76
2021/10/03 09:46:37;;;;;;;;;;;;;;;;;;5136238;27;19923;-75
2021/10/03 09:49:03;;;;;;;;;;;;;;;;;;5136445;27;20018;-75
2021/10/03 09:51:30;;;;;;;;;;;;;;;;;;5136304;27;19930;-74
2021/10/03 09:53:56;;;;;;;;;;;;;;;;;;5135892;27;20301;-76
2021/10/03 09:56:22;;;;;;;;;;;;;;;;;;5136004;27;19933;-73
2021/10/03 09:58:49;;;;;;;;;;;;;;;;;;5136482;27;19923;-74
2021/10/03 10:01:16;;;;;;;;;;;;;;;;;;5136321;27;19946;-75
2021/10/03 10:03:42;;;;;;;;;;;;;;;;;;5136155;27;19932;-74
2021/10/03 10:06:09;;;;;;;;;;;;;;;;;;5135793;27;19924;-78
2021/10/03 10:08:35;;;;;;;;;;;;;;;;;;5136242;27;20021;-78
2021/10/03 10:11:01;;;;;;;;;;;;;;;;;;5136037;27;19923;-77
2021/10/03 10:13:28;;;;;;;;;;;;;;;;;;5135926;27;19923;-74
2021/10/03 10:15:54;;;;;;;;;;;;;;;;;;5135818;27;19924;-74
2021/10/03 10:18:20;;;;;;;;;;;;;;;;;;5136001;27;19923;-75
2021/10/03 10:20:46;;;;;;;;;;;;;;;;;;5135727;27;19930;-74
2021/10/03 10:23:13;;;;;;;;;;;;;;;;;;5135747;27;19928;-74
2021/10/03 10:25:40;;;;;;;;;;;;;;;;;;5135540;27;19938;-75
2021/10/03 10:28:07;;;;;;;;;;;;;;;;;;5135356;27;20010;-74
2021/10/03 10:30:33;;;;;;;;;;;;;;;;;;5135742;27;19927;-75
2021/10/03 10:32:59;;;;;;;;;;;;;;;;;;5135304;27;19923;-74
2021/10/03 10:35:26;;;;;;;;;;;;;;;;;;5135343;27;19923;-74
2021/10/03 10:37:53;;;;;;;;;;;;;;;;;;5135087;27;19923;-74
2021/10/03 10:40:19;;;;;;;;;;;;;;;;;;5135290;27;20382;-75
2021/10/03 10:42:45;;;;;;;;;;;;;;;;;;5135377;27;19923;-75
2021/10/03 10:45:12;;;;;;;;;;;;;;;;;;5135464;27;19929;-78
2021/10/03 10:47:38;;;;;;;;;;;;;;;;;;5135502;27;20408;-77
2021/10/03 10:50:04;;;;;;;;;;;;;;;;;;5136614;27;19923;-77
2021/10/03 10:52:31;;;;;;;;;;;;;;;;;;5136780;27;20172;-77
2021/10/03 10:54:57;;;;;;;;;;;;;;;;;;5140050;27;19963;-79
2021/10/03 10:57:23;;;;;;;;;;;;;;;;;;5136217;27;19934;-77
2021/10/03 10:59:50;;;;;;;;;;;;;;;;;;5134577;27;19931;-77
2021/10/03 11:02:16;;;;;;;;;;;;;;;;;;5134760;27;20266;-77
2021/10/03 11:04:42;;;;;;;;;;;;;;;;;;5134363;27;19923;-78
2021/10/03 11:07:09;;;;;;;;;;;;;;;;;;5134836;27;19923;-76
2021/10/03 11:09:35;;;;;;;;;;;;;;;;;;5134754;27;20270;-76
2021/10/03 11:12:01;;;;;;;;;;;;;;;;;;5134001;27;19923;-76
2021/10/03 11:14:27;;;;;;;;;;;;;;;;;;5134778;27;19927;-76
2021/10/03 11:16:54;;;;;;;;;;;;;;;;;;5134465;27;19935;-76
2021/10/03 11:19:21;;;;;;;;;;;;;;;;;;5134625;27;19931;-76
2021/10/03 11:21:47;;;;;;;;;;;;;;;;;;5134560;27;19931;-76
2021/10/03 11:24:14;;;;;;;;;;;;;;;;;;5134492;27;19928;-76
2021/10/03 11:26:40;;;;;;;;;;;;;;;;;;5134333;27;19924;-76
2021/10/03 11:29:07;;;;;;;;;;;;;;;;;;5134437;27;19923;-76
2021/10/03 11:31:33;;;;;;;;;;;;;;;;;;5134315;27;19927;-76
2021/10/03 11:34:00;;;;;;;;;;;;;;;;;;5134304;27;19929;-76
2021/10/03 11:36:26;;;;;;;;;;;;;;;;;;5134289;27;20366;-76
2021/10/03 11:38:52;;;;;;;;;;;;;;;;;;5134138;27;19924;-77
2021/10/03 11:41:18;;;;;;;;;;;;;;;;;;5134120;27;19923;-77
2021/10/03 11:43:45;;;;;;;;;;;;;;;;;;5134450;27;19934;-76
2021/10/03 11:46:11;;;;;;;;;;;;;;;;;;5133839;27;19923;-76
2021/10/03 11:48:37;;;;;;;;;;;;;;;;;;5134117;27;19924;-76
2021/10/03 11:51:04;;;;;;;;;;;;;;;;;;5133702;27;19934;-76
2021/10/03 11:53:31;;;;;;;;;;;;;;;;;;5133936;27;20366;-76
2021/10/03 11:55:58;;;;;;;;;;;;;;;;;;5133472;27;20010;-76
2021/10/03 11:58:27;;;;;;;;;;;;;;;;;;5134221;27;19927;-76
2021/10/03 12:00:53;;;;;;;;;;;;;;;;;;5133831;27;20327;-76
2021/10/03 12:03:20;;;;;;;;;;;;;;;;;;5133939;27;19923;-76
2021/10/03 12:05:46;;;;;;;;;;;;;;;;;;5133932;27;19923;-76
2021/10/03 12:08:13;;;;;;;;;;;;;;;;;;5133686;27;20540;-76
2021/10/03 12:10:39;;;;;;;;;;;;;;;;;;5133224;27;20034;-76
2021/10/03 12:13:05;;;;;;;;;;;;;;;;;;5133730;27;19930;-76
2021/10/03 12:15:32;;;;;;;;;;;;;;;;;;5133955;27;19959;-76
2021/10/03 12:17:58;;;;;;;;;;;;;;;;;;5133240;27;20381;-76
2021/10/03 12:20:24;;;;;;;;;;;;;;;;;;5133568;27;19935;-76
2021/10/03 12:22:51;;;;;;;;;;;;;;;;;;5133668;27;19923;-76
2021/10/03 12:25:17;;;;;;;;;;;;;;;;;;5133709;27;20397;-76
2021/10/03 12:27:43;;;;;;;;;;;;;;;;;;5133536;27;19924;-76
2021/10/03 12:30:10;;;;;;;;;;;;;;;;;;5133710;27;19927;-76
2021/10/03 12:32:37;;;;;;;;;;;;;;;;;;5133872;28;19931;-76
2021/10/03 12:35:03;;;;;;;;;;;;;;;;;;5133476;28;19954;-76
2021/10/03 12:37:32;;;;;;;;;;;;;;;;;;5133217;28;19931;-76
2021/10/03 12:40:00;;;;;;;;;;;;;;;;;;5133461;28;19927;-77
2021/10/03 12:42:26;;;;;;;;;;;;;;;;;;5133533;28;19931;-76
2021/10/03 12:44:53;;;;;;;;;;;;;;;;;;5133322;28;20169;-76
2021/10/03 12:47:19;;;;;;;;;;;;;;;;;;5133351;28;19938;-76
2021/10/03 12:49:45;;;;;;;;;;;;;;;;;;5133433;28;19931;-76
2021/10/03 12:52:12;;;;;;;;;;;;;;;;;;5133632;28;19923;-76
2021/10/03 12:54:38;;;;;;;;;;;;;;;;;;5133067;28;19923;-76
2021/10/03 12:57:04;;;;;;;;;;;;;;;;;;5133273;28;19927;-75
2021/10/03 12:59:31;;;;;;;;;;;;;;;;;;5133214;28;20293;-76
2021/10/03 13:01:57;;;;;;;;;;;;;;;;;;5133340;27;19923;-76
2021/10/03 13:04:23;;;;;;;;;;;;;;;;;;5133498;28;19923;-76
2021/10/03 13:06:49;;;;;;;;;;;;;;;;;;5133013;28;20317;-77
2021/10/03 13:09:16;;;;;;;;;;;;;;;;;;5133204;28;19931;-77
2021/10/03 13:11:42;;;;;;;;;;;;;;;;;;5133387;28;19930;-76
2021/10/03 13:14:08;;;;;;;;;;;;;;;;;;5132900;28;20263;-76
2021/10/03 13:16:35;;;;;;;;;;;;;;;;;;5144257;28;20018;-76
2021/10/03 13:19:01;;;;;;;;;;;;;;;;;;5151729;28;19924;-76
2021/10/03 13:21:27;;;;;;;;;;;;;;;;;;5150354;27;20261;-75
2021/10/03 13:23:53;;;;;;;;;;;;;;;;;;5137037;27;19924;-76
2021/10/03 13:26:20;;;;;;;;;;;;;;;;;;5137488;27;19946;-76
2021/10/03 13:28:46;;;;;;;;;;;;;;;;;;5136920;27;19931;-76
2021/10/03 13:31:12;;;;;;;;;;;;;;;;;;5136993;27;19931;-76
2021/10/03 13:33:39;;;;;;;;;;;;;;;;;;5137201;27;20267;-76
2021/10/03 13:36:05;;;;;;;;;;;;;;;;;;5136495;27;19927;-76
2021/10/03 13:38:31;;;;;;;;;;;;;;;;;;5136804;27;19924;-76
2021/10/03 13:41:01;;;;;;;;;;;;;;;;;;5136825;27;19923;-76
2021/10/03 13:43:28;;;;;;;;;;;;;;;;;;5136693;27;20457;-76
2021/10/03 13:45:54;;;;;;;;;;;;;;;;;;5136909;27;19930;-76
2021/10/03 13:48:20;;;;;;;;;;;;;;;;;;5136310;27;19946;-76
2021/10/03 13:50:46;;;;;;;;;;;;;;;;;;5136597;27;19930;-75
2021/10/03 13:53:13;;;;;;;;;;;;;;;;;;5136316;27;19923;-76
2021/10/03 13:55:39;;;;;;;;;;;;;;;;;;5136821;27;19924;-75
2021/10/03 13:58:05;;;;;;;;;;;;;;;;;;5135964;27;20377;-76
2021/10/03 14:00:32;;;;;;;;;;;;;;;;;;5136018;27;19924;-76
2021/10/03 14:02:58;;;;;;;;;;;;;;;;;;5136222;27;19923;-76
2021/10/03 14:05:25;;;;;;;;;;;;;;;;;;5136084;27;19930;-76
2021/10/03 14:07:51;;;;;;;;;;;;;;;;;;5136040;27;19927;-76
2021/10/03 14:10:19;;;;;;;;;;;;;;;;;;5136308;27;19946;-76
2021/10/03 14:12:45;;;;;;;;;;;;;;;;;;5136002;27;19950;-76
2021/10/03 14:15:12;;;;;;;;;;;;;;;;;;5135617;27;20373;-76
2021/10/03 14:17:38;;;;;;;;;;;;;;;;;;5136112;27;19930;-76
2021/10/03 14:20:04;;;;;;;;;;;;;;;;;;5136008;27;20366;-76
2021/10/03 14:22:31;;;;;;;;;;;;;;;;;;5135597;27;19923;-76
2021/10/03 14:24:57;;;;;;;;;;;;;;;;;;5135645;27;19929;-76
2021/10/03 14:27:23;;;;;;;;;;;;;;;;;;5135515;27;20297;-77
2021/10/03 14:29:50;;;;;;;;;;;;;;;;;;5135286;27;19923;-76
2021/10/03 14:32:16;;;;;;;;;;;;;;;;;;5135712;27;19928;-76
2021/10/03 14:34:42;;;;;;;;;;;;;;;;;;5130227;27;20292;-74
2021/10/03 14:37:08;;;;;;;;;;;;;;;;;;5125682;27;19931;-75
2021/10/03 14:39:35;;;;;;;;;;;;;;;;;;5121615;27;19931;-75
2021/10/03 14:42:01;;;;;;;;;;;;;;;;;;5114639;28;20389;-73
2021/10/03 14:44:27;;;;;;;;;;;;;;;;;;5133536;27;19930;-73
2021/10/03 14:46:54;;;;;;;;;;;;;;;;;;5134886;27;19923;-74
2021/10/03 14:49:20;;;;;;;;;;;;;;;;;;5135433;27;19929;-74
2021/10/03 14:51:46;;;;;;;;;;;;;;;;;;5126193;27;20374;-74
2021/10/03 14:54:13;;;;;;;;;;;;;;;;;;5114639;28;19931;-73
2021/10/03 14:56:39;;;;;;;;;;;;;;;;;;5114692;28;20020;-74
2021/10/03 14:59:06;;;;;;;;;;;;;;;;;;5114679;28;19928;-74
2021/10/03 15:01:32;;;;;;;;;;;;;;;;;;5114641;28;19949;-74
2021/10/03 15:03:58;;;;;;;;;;;;;;;;;;5114113;28;19931;-74
2021/10/03 15:06:25;;;;;;;;;;;;;;;;;;5114189;28;20390;-74
2021/10/03 15:08:51;;;;;;;;;;;;;;;;;;5122731;27;19931;-74
2021/10/03 15:11:17;;;;;;;;;;;;;;;;;;5134790;27;19946;-74
2021/10/03 15:13:44;;;;;;;;;;;;;;;;;;5134589;27;20374;-74
2021/10/03 15:16:10;;;;;;;;;;;;;;;;;;5134258;27;19933;-74
2021/10/03 15:18:36;;;;;;;;;;;;;;;;;;5135061;27;19927;-74
2021/10/03 15:21:02;;;;;;;;;;;;;;;;;;5134406;27;20378;-74
2021/10/03 15:23:29;;;;;;;;;;;;;;;;;;5135029;27;19923;-74
2021/10/03 15:25:55;;;;;;;;;;;;;;;;;;5134779;27;19924;-74
2021/10/03 15:28:21;;;;;;;;;;;;;;;;;;5134441;27;19924;-74
2021/10/03 15:30:48;;;;;;;;;;;;;;;;;;5134571;27;19930;-74
2021/10/03 15:33:14;;;;;;;;;;;;;;;;;;5134800;27;19923;-74
2021/10/03 15:35:40;;;;;;;;;;;;;;;;;;5134248;27;19930;-74
2021/10/03 15:38:07;;;;;;;;;;;;;;;;;;5134272;27;19931;-74
2021/10/03 15:40:34;;;;;;;;;;;;;;;;;;5134134;27;19923;-75
2021/10/03 15:43:01;;;;;;;;;;;;;;;;;;5133808;27;20370;-75
2021/10/03 15:45:27;;;;;;;;;;;;;;;;;;5134042;27;19924;-75
2021/10/03 15:47:53;;;;;;;;;;;;;;;;;;5134098;27;19923;-76
2021/10/03 15:50:20;;;;;;;;;;;;;;;;;;5134367;27;19930;-75
2021/10/03 15:52:46;;;;;;;;;;;;;;;;;;5134174;27;19927;-75
2021/10/03 15:55:12;;;;;;;;;;;;;;;;;;5133532;27;19931;-75
2021/10/03 15:57:39;;;;;;;;;;;;;;;;;;5134208;27;19924;-75
2021/10/03 16:00:05;;;;;;;;;;;;;;;;;;5133706;27;20289;-75
2021/10/03 16:02:31;;;;;;;;;;;;;;;;;;5133915;27;19923;-75
2021/10/03 16:04:57;;;;;;;;;;;;;;;;;;5134636;27;19923;-75
2021/10/03 16:07:24;;;;;;;;;;;;;;;;;;5133833;27;20296;-75
2021/10/03 16:09:50;;;;;;;;;;;;;;;;;;5133416;27;19930;-74
2021/10/03 16:12:16;;;;;;;;;;;;;;;;;;5133696;27;19928;-74
2021/10/03 16:14:43;;;;;;;;;;;;;;;;;;5134014;27;19930;-74
2021/10/03 16:17:09;;;;;;;;;;;;;;;;;;5133379;27;20545;-74
2021/10/03 16:19:35;;;;;;;;;;;;;;;;;;5133832;27;20308;-74
2021/10/03 16:22:02;;;;;;;;;;;;;;;;;;5133321;27;19924;-75
2021/10/03 16:24:29;;;;;;;;;;;;;;;;;;5134235;27;20273;-75
2021/10/03 16:26:55;;;;;;;;;;;;;;;;;;5133243;27;19930;-75
2021/10/03 16:29:21;;;;;;;;;;;;;;;;;;5133689;27;19923;-74
2021/10/03 16:31:47;;;;;;;;;;;;;;;;;;5133679;27;19945;-74
2021/10/03 16:34:14;;;;;;;;;;;;;;;;;;5133445;27;20266;-75
2021/10/03 16:36:41;;;;;;;;;;;;;;;;;;5133322;28;19924;-77
2021/10/03 16:39:07;;;;;;;;;;;;;;;;;;5133456;28;19924;-76